Time;durP1;ratioP1;P1;durP2;ratioP2;P2;SDS_P1;SDS_P2;PMS_P1;PMS_P2;Temp;Humidity;BMP_temperature;BMP_pressure;BME280_temperature;BME280_humidity;BME280_pressure;Samples;Min_cycle;Max_cycle;Signal;HPM_P1;HPM_P2
2021/09/27 00:01:41;;;;;;;11.75;8.13;;;19.10;99.90;;;;;;5052473;28;20404;-47
2021/09/27 00:04:07;;;;;;;14.13;8.27;;;19.00;99.90;;;;;;5062442;28;20474;-51
2021/09/27 00:06:33;;;;;;;13.75;7.93;;;19.00;99.90;;;;;;5069391;28;20490;-47
2021/09/27 00:08:58;;;;;;;10.40;8.65;;;19.00;99.90;;;;;;5070585;28;20077;-47
2021/09/27 00:11:26;;;;;;;15.20;9.05;;;19.00;99.90;;;;;;5070969;28;20024;-48
2021/09/27 00:13:57;;;;;;;14.00;9.02;;;19.00;99.90;;;;;;5070862;28;20426;-49
2021/09/27 00:16:23;;;;;;;13.82;8.95;;;19.00;99.90;;;;;;5070443;28;20089;-47
2021/09/27 00:18:50;;;;;;;14.10;9.27;;;18.90;99.90;;;;;;5070191;28;20024;-49
2021/09/27 00:21:22;;;;;;;13.95;8.75;;;18.90;99.90;;;;;;5070765;28;20040;-47
2021/09/27 00:23:48;;;;;;;13.75;10.10;;;18.90;99.90;;;;;;5070868;28;20385;-49
2021/09/27 00:26:15;;;;;;;12.93;9.77;;;18.80;99.90;;;;;;5070195;28;20020;-50
2021/09/27 00:28:41;;;;;;;15.52;10.23;;;18.80;99.90;;;;;;5069652;28;20052;-48
2021/09/27 00:31:07;;;;;;;17.98;10.05;;;18.80;99.90;;;;;;5051841;28;20421;-50
2021/09/27 00:33:32;;;;;;;17.77;10.60;;;18.80;99.90;;;;;;5044513;28;20471;-49
2021/09/27 00:35:58;;;;;;;15.88;10.10;;;18.80;99.90;;;;;;5040629;28;20383;-49
2021/09/27 00:38:25;;;;;;;15.60;10.23;;;18.80;99.90;;;;;;5039200;28;20056;-48
2021/09/27 00:40:54;;;;;;;20.33;10.95;;;18.80;99.90;;;;;;5039237;28;20104;-49
2021/09/27 00:43:19;;;;;;;12.57;9.27;;;18.70;99.90;;;;;;5039286;28;20032;-47
2021/09/27 00:45:48;;;;;;;14.68;10.07;;;18.70;99.90;;;;;;5039717;28;20017;-47
2021/09/27 00:48:14;;;;;;;16.85;11.60;;;18.70;99.90;;;;;;5042970;28;20052;-48
2021/09/27 00:50:43;;;;;;;15.25;10.45;;;18.70;99.90;;;;;;5048717;28;20058;-47
2021/09/27 00:53:21;;;;;;;15.73;10.00;;;18.70;99.90;;;;;;5050000;28;20041;-47
2021/09/27 00:55:47;;;;;;;18.38;11.13;;;18.70;99.90;;;;;;5046782;28;20068;-47
2021/09/27 00:58:15;;;;;;;14.00;10.23;;;18.60;99.90;;;;;;5045311;28;20065;-48
2021/09/27 01:00:41;;;;;;;16.75;11.25;;;18.60;99.90;;;;;;5041915;28;20092;-48
2021/09/27 01:03:07;;;;;;;25.98;12.85;;;18.60;99.90;;;;;;5061181;28;20112;-47
2021/09/27 01:05:36;;;;;;;16.77;12.10;;;18.60;99.90;;;;;;5069916;28;20040;-47
2021/09/27 01:08:21;;;;;;;16.08;11.73;;;18.60;99.90;;;;;;5069175;28;20032;-48
2021/09/27 01:10:58;;;;;;;16.55;10.95;;;18.60;99.90;;;;;;5069469;28;20021;-47
2021/09/27 01:13:53;;;;;;;17.13;11.90;;;18.60;99.90;;;;;;5069741;28;20038;-50
2021/09/27 01:16:59;;;;;;;13.00;9.35;;;18.60;99.90;;;;;;5068945;28;20035;-47
2021/09/27 01:19:43;;;;;;;17.98;11.27;;;18.60;99.90;;;;;;5046404;28;20025;-46
2021/09/27 01:22:39;;;;;;;21.95;12.32;;;18.50;99.90;;;;;;5068150;28;20493;-47
2021/09/27 01:25:30;;;;;;;18.67;11.15;;;18.50;99.90;;;;;;5068951;28;20021;-48
2021/09/27 01:27:58;;;;;;;15.75;10.15;;;18.50;99.90;;;;;;5068530;28;20036;-46
2021/09/27 01:30:32;;;;;;;15.73;10.80;;;18.50;99.90;;;;;;5060302;28;20060;-47
2021/09/27 01:33:02;;;;;;;16.42;10.82;;;18.50;99.90;;;;;;5057510;28;20055;-47
2021/09/27 01:35:44;;;;;;;15.75;9.25;;;18.50;99.90;;;;;;5069047;28;20577;-46
2021/09/27 01:38:24;;;;;;;13.90;10.50;;;18.50;99.90;;;;;;5068702;28;20020;-46
2021/09/27 01:41:04;;;;;;;13.02;9.48;;;18.50;99.90;;;;;;5069137;28;20398;-47
2021/09/27 01:43:59;;;;;;;12.20;9.13;;;18.40;99.90;;;;;;5069015;28;20029;-46
2021/09/27 01:46:37;;;;;;;15.52;9.70;;;18.40;99.90;;;;;;5035603;28;20099;-47
2021/09/27 01:49:11;;;;;;;17.17;10.50;;;18.40;99.90;;;;;;5031567;28;20122;-47
2021/09/27 01:52:04;;;;;;;12.73;8.90;;;18.40;99.90;;;;;;5027124;28;20041;-48
2021/09/27 01:54:46;;;;;;;13.23;8.93;;;18.40;99.90;;;;;;5028925;28;20030;-48
2021/09/27 01:57:26;;;;;;;11.38;8.43;;;18.40;99.90;;;;;;5028379;28;20017;-47
2021/09/27 02:00:10;;;;;;;9.17;8.07;;;18.30;99.90;;;;;;5029143;28;20025;-46
2021/09/27 02:02:55;;;;;;;11.10;8.43;;;18.30;99.90;;;;;;5052447;28;20033;-47
2021/09/27 02:05:28;;;;;;;14.15;8.95;;;18.30;99.90;;;;;;5029285;28;20029;-47
2021/09/27 02:08:24;;;;;;;13.00;8.15;;;18.30;99.90;;;;;;5027039;28;20026;-46
2021/09/27 02:11:00;;;;;;;11.18;8.63;;;18.30;99.90;;;;;;5028864;28;20033;-48
2021/09/27 02:13:45;;;;;;;13.40;8.05;;;18.20;99.90;;;;;;5028690;28;20037;-47
2021/09/27 02:16:20;;;;;;;9.90;8.00;;;18.20;99.90;;;;;;5028040;28;20040;-47
2021/09/27 02:19:06;;;;;;;9.90;7.63;;;18.20;99.90;;;;;;5027901;28;20120;-47
2021/09/27 02:21:38;;;;;;;9.23;7.88;;;18.20;99.90;;;;;;5028568;28;20083;-47
2021/09/27 02:24:29;;;;;;;9.52;6.72;;;18.10;99.90;;;;;;5027241;28;20026;-47
2021/09/27 02:26:54;;;;;;;10.02;6.90;;;18.10;99.90;;;;;;5027853;28;20037;-47
2021/09/27 02:29:21;;;;;;;8.18;6.70;;;18.10;99.90;;;;;;5028596;28;20029;-47
2021/09/27 02:32:12;;;;;;;9.65;6.93;;;18.10;99.90;;;;;;5045049;28;20099;-47
2021/09/27 02:35:01;;;;;;;8.63;6.22;;;18.10;99.90;;;;;;5061097;28;20040;-48
2021/09/27 02:37:26;;;;;;;10.18;7.28;;;18.10;99.90;;;;;;5067954;28;20066;-47
2021/09/27 02:40:13;;;;;;;11.13;6.97;;;18.10;99.90;;;;;;5068323;28;20052;-47
2021/09/27 02:42:50;;;;;;;10.27;6.78;;;18.10;99.90;;;;;;5068517;28;20063;-45
2021/09/27 02:45:16;;;;;;;6.97;6.28;;;18.00;99.90;;;;;;5044123;28;20076;-45
2021/09/27 02:48:13;;;;;;;10.20;7.38;;;18.00;99.90;;;;;;5029055;28;20029;-44
2021/09/27 02:50:45;;;;;;;6.88;6.05;;;18.00;99.90;;;;;;5025262;28;20132;-46
2021/09/27 02:53:11;;;;;;;9.02;7.95;;;18.00;99.90;;;;;;5028215;28;20540;-44
2021/09/27 02:55:49;;;;;;;13.43;6.80;;;17.90;99.90;;;;;;5028099;28;20061;-46
2021/09/27 02:58:37;;;;;;;9.57;7.38;;;17.90;99.90;;;;;;5027667;28;20021;-47
2021/09/27 03:01:49;;;;;;;8.25;7.10;;;17.90;99.90;;;;;;5034957;28;20017;-45
2021/09/27 03:04:43;;;;;;;9.50;7.35;;;17.80;99.90;;;;;;5055421;28;20024;-48
2021/09/27 03:07:46;;;;;;;8.23;7.32;;;17.80;99.90;;;;;;5071308;28;20470;-47
2021/09/27 03:10:43;;;;;;;7.70;6.90;;;17.80;99.90;;;;;;5072134;28;20086;-48
2021/09/27 03:13:28;;;;;;;11.10;8.13;;;17.70;99.90;;;;;;5072142;28;20078;-47
2021/09/27 03:16:10;;;;;;;11.60;7.47;;;17.70;99.90;;;;;;5070160;28;20111;-45
2021/09/27 03:18:46;;;;;;;9.15;7.70;;;17.70;99.90;;;;;;5070098;28;20035;-48
2021/09/27 03:21:28;;;;;;;10.50;7.50;;;17.70;99.90;;;;;;5071740;28;20029;-48
2021/09/27 03:24:30;;;;;;;8.50;7.60;;;17.70;99.90;;;;;;5071702;28;20103;-45
2021/09/27 03:27:01;;;;;;;8.38;7.32;;;17.60;99.90;;;;;;5071034;28;20028;-45
2021/09/27 03:30:03;;;;;;;13.82;9.73;;;17.60;99.90;;;;;;5071921;28;20020;-46
2021/09/27 03:33:05;;;;;;;11.98;8.95;;;17.70;99.90;;;;;;5054772;28;20534;-45
2021/09/27 03:35:54;;;;;;;16.77;11.18;;;17.60;99.90;;;;;;5031425;28;20472;-46
2021/09/27 03:38:39;;;;;;;14.05;11.10;;;17.60;99.90;;;;;;5031212;28;20030;-45
2021/09/27 03:41:11;;;;;;;16.27;11.18;;;17.60;99.90;;;;;;5031340;28;20414;-46
2021/09/27 03:43:52;;;;;;;16.83;11.43;;;17.50;99.90;;;;;;5039468;28;20039;-45
2021/09/27 03:46:28;;;;;;;19.27;12.70;;;17.50;99.90;;;;;;5042907;28;20474;-45
2021/09/27 03:49:16;;;;;;;25.15;15.00;;;17.50;99.90;;;;;;5041377;28;20041;-46
2021/09/27 03:51:52;;;;;;;18.50;12.88;;;17.40;99.90;;;;;;5044144;28;20082;-45
2021/09/27 03:54:31;;;;;;;20.83;13.60;;;17.40;99.90;;;;;;5036807;28;20494;-45
2021/09/27 03:57:03;;;;;;;22.92;15.80;;;17.40;99.90;;;;;;5030894;28;20496;-46
2021/09/27 03:59:32;;;;;;;20.13;14.27;;;17.40;99.90;;;;;;5031406;28;20550;-45
2021/09/27 04:02:15;;;;;;;18.17;13.02;;;17.40;99.90;;;;;;5048735;28;20070;-46
2021/09/27 04:05:02;;;;;;;24.10;15.75;;;17.40;99.90;;;;;;5067021;28;20474;-47
2021/09/27 04:07:43;;;;;;;23.95;17.17;;;17.40;99.90;;;;;;5070227;28;20021;-47
2021/09/27 04:10:21;;;;;;;20.30;14.50;;;17.30;99.90;;;;;;5070967;28;20025;-47
2021/09/27 04:13:09;;;;;;;24.40;14.98;;;17.40;99.90;;;;;;5070598;28;20021;-45
2021/09/27 04:16:06;;;;;;;21.98;16.27;;;17.40;99.90;;;;;;5068442;28;20483;-46
2021/09/27 04:18:37;;;;;;;22.17;14.00;;;17.40;99.90;;;;;;5070289;28;20199;-47
2021/09/27 04:21:03;;;;;;;22.55;16.80;;;17.40;99.90;;;;;;5069403;28;20486;-47
2021/09/27 04:23:46;;;;;;;24.98;17.00;;;17.30;99.90;;;;;;5070646;28;20044;-45
2021/09/27 04:26:40;;;;;;;22.67;15.68;;;17.30;99.90;;;;;;5070459;28;20033;-45
2021/09/27 04:29:43;;;;;;;23.70;15.77;;;17.30;99.90;;;;;;5070637;28;20356;-45
2021/09/27 04:32:35;;;;;;;17.15;13.32;;;17.30;99.90;;;;;;5045752;28;20021;-44
2021/09/27 04:35:39;;;;;;;19.10;13.90;;;17.30;99.90;;;;;;5069360;28;20031;-45
2021/09/27 04:38:08;;;;;;;23.02;15.95;;;17.30;99.90;;;;;;5059174;28;20283;-46
2021/09/27 04:40:48;;;;;;;22.27;15.38;;;17.30;99.90;;;;;;5070780;28;20024;-45
2021/09/27 04:43:28;;;;;;;23.15;14.13;;;17.40;99.90;;;;;;5070152;28;20016;-44
2021/09/27 04:46:06;;;;;;;19.63;13.68;;;17.40;99.90;;;;;;5069915;28;20036;-44
2021/09/27 04:48:54;;;;;;;19.52;15.10;;;17.40;99.90;;;;;;5069747;28;20074;-45
2021/09/27 04:51:42;;;;;;;19.05;14.20;;;17.40;99.90;;;;;;5070103;28;20118;-47
2021/09/27 04:54:20;;;;;;;24.35;16.38;;;17.40;99.90;;;;;;5070440;28;20029;-47
2021/09/27 04:57:28;;;;;;;27.45;18.35;;;17.40;99.90;;;;;;5069456;28;20217;-45
2021/09/27 05:00:10;;;;;;;19.88;14.77;;;17.40;99.90;;;;;;5069899;28;20067;-45
2021/09/27 05:03:17;;;;;;;23.88;15.30;;;17.40;99.90;;;;;;5055012;28;20029;-48
2021/09/27 05:05:52;;;;;;;23.67;16.50;;;17.40;99.90;;;;;;5030576;28;20276;-47
2021/09/27 05:08:53;;;;;;;22.45;16.38;;;17.40;99.90;;;;;;5028019;28;20025;-46
2021/09/27 05:11:24;;;;;;;33.65;20.30;;;17.40;99.90;;;;;;5029662;28;20116;-46
2021/09/27 05:14:20;;;;;;;27.58;18.45;;;17.40;99.90;;;;;;5029630;28;20076;-46
2021/09/27 05:16:49;;;;;;;26.25;17.92;;;17.40;99.90;;;;;;5028665;28;20364;-45
2021/09/27 05:19:34;;;;;;;25.13;17.98;;;17.40;99.90;;;;;;5029450;28;20056;-46
2021/09/27 05:22:20;;;;;;;30.75;20.67;;;17.40;99.90;;;;;;5029659;28;20021;-45
2021/09/27 05:25:15;;;;;;;34.22;19.45;;;17.40;99.90;;;;;;5029529;28;20515;-46
2021/09/27 05:28:06;;;;;;;34.17;20.40;;;17.40;99.90;;;;;;5028847;28;20026;-45
2021/09/27 05:30:40;;;;;;;25.65;16.65;;;17.40;99.90;;;;;;5029257;28;20053;-46
2021/09/27 05:33:36;;;;;;;24.55;15.88;;;17.40;99.90;;;;;;5059664;28;20083;-45
2021/09/27 05:36:13;;;;;;;27.27;17.38;;;17.40;99.90;;;;;;5068696;28;20029;-47
2021/09/27 05:38:54;;;;;;;33.85;19.92;;;17.40;99.90;;;;;;5068684;28;20175;-48
2021/09/27 05:41:37;;;;;;;25.50;18.33;;;17.40;99.90;;;;;;5065906;28;20501;-47
2021/09/27 05:44:28;;;;;;;34.45;21.98;;;17.40;99.90;;;;;;5035218;28;20909;-48
2021/09/27 05:47:03;;;;;;;36.30;22.42;;;17.40;99.90;;;;;;5040882;28;20112;-48
2021/09/27 05:49:39;;;;;;;35.92;22.45;;;17.40;99.90;;;;;;5049658;28;20502;-48
2021/09/27 05:52:25;;;;;;;32.70;21.27;;;17.40;99.90;;;;;;5034834;28;20029;-47
2021/09/27 05:55:01;;;;;;;31.10;19.52;;;17.40;99.90;;;;;;5037517;28;20276;-50
2021/09/27 05:57:32;;;;;;;30.75;20.77;;;17.40;99.90;;;;;;5038928;28;20086;-47
2021/09/27 06:00:02;;;;;;;;;;;17.40;99.90;;;;;;5037874;28;20017;-48
2021/09/27 06:03:16;;;;;;;29.35;19.95;;;17.40;99.90;;;;;;5041897;28;20451;-49
2021/09/27 06:06:11;;;;;;;30.23;18.65;;;17.50;99.90;;;;;;5007028;28;20059;-49
2021/09/27 06:09:06;;;;;;;31.60;19.55;;;17.50;99.90;;;;;;5039757;28;20053;-47
2021/09/27 06:11:47;;;;;;;46.00;26.65;;;17.50;99.90;;;;;;5025353;28;20036;-48
2021/09/27 06:14:16;;;;;;;33.95;21.95;;;17.50;99.90;;;;;;5037986;28;20070;-48
2021/09/27 06:16:50;;;;;;;31.02;21.00;;;17.50;99.90;;;;;;5038085;28;20025;-47
2021/09/27 06:19:39;;;;;;;41.35;25.60;;;17.50;99.90;;;;;;5039015;28;20029;-47
2021/09/27 06:22:16;;;;;;;30.98;18.23;;;17.40;99.90;;;;;;5039083;28;20025;-49
2021/09/27 06:24:53;;;;;;;29.17;19.13;;;17.50;99.90;;;;;;5034276;28;20040;-46
2021/09/27 06:27:30;;;;;;;32.13;18.90;;;17.50;99.90;;;;;;5034046;28;20040;-46
2021/09/27 06:30:25;;;;;;;30.75;19.80;;;17.50;99.90;;;;;;5035430;28;20446;-48
2021/09/27 06:33:19;;;;;;;29.30;20.75;;;17.50;99.90;;;;;;5041493;28;20379;-47
2021/09/27 06:35:49;;;;;;;31.15;20.02;;;17.50;99.90;;;;;;5034672;28;20456;-48
2021/09/27 06:38:17;;;;;;;30.10;20.52;;;17.50;99.90;;;;;;5035904;28;20075;-47
2021/09/27 06:40:48;;;;;;;28.50;18.15;;;17.50;99.90;;;;;;5036558;28;20385;-48
2021/09/27 06:43:17;;;;;;;28.83;18.60;;;17.50;99.90;;;;;;5034406;28;20029;-47
2021/09/27 06:45:43;;;;;;;24.45;17.42;;;17.50;99.90;;;;;;5033914;28;20365;-47
2021/09/27 06:48:08;;;;;;;30.85;19.20;;;17.60;99.90;;;;;;5035094;28;20250;-49
2021/09/27 06:50:34;;;;;;;35.42;23.00;;;17.60;99.90;;;;;;5037234;28;20041;-48
2021/09/27 06:52:59;;;;;;;30.85;20.67;;;17.70;99.90;;;;;;5034015;28;20037;-47
2021/09/27 06:55:25;;;;;;;26.45;17.67;;;17.70;99.90;;;;;;5034939;28;20522;-48
2021/09/27 06:57:50;;;;;;;30.50;19.52;;;17.70;99.90;;;;;;5034287;28;20021;-48
2021/09/27 07:00:16;;;;;;;29.38;20.63;;;17.80;99.90;;;;;;5036492;28;20041;-47
2021/09/27 07:02:42;;;;;;;35.42;22.33;;;17.90;99.90;;;;;;5039885;28;20029;-47
2021/09/27 07:05:09;;;;;;;27.63;19.48;;;17.90;99.90;;;;;;5058310;28;20036;-48
2021/09/27 07:07:36;;;;;;;34.65;22.80;;;17.90;99.90;;;;;;5033117;28;20517;-47
2021/09/27 07:10:02;;;;;;;35.75;23.10;;;17.90;99.90;;;;;;5048350;28;20033;-47
2021/09/27 07:12:27;;;;;;;31.98;20.25;;;17.90;99.90;;;;;;5045680;28;20177;-48
2021/09/27 07:14:53;;;;;;;29.58;19.27;;;17.90;99.90;;;;;;5027728;28;20037;-50
2021/09/27 07:17:18;;;;;;;29.13;19.38;;;18.00;99.90;;;;;;5042894;28;20222;-50
2021/09/27 07:19:44;;;;;;;27.42;18.95;;;18.00;99.90;;;;;;5046640;28;20033;-50
2021/09/27 07:22:09;;;;;;;35.33;22.95;;;18.00;99.90;;;;;;5047549;28;20103;-48
2021/09/27 07:24:36;;;;;;;31.27;18.67;;;18.10;99.90;;;;;;5029010;28;20159;-48
2021/09/27 07:27:02;;;;;;;28.52;18.35;;;18.10;99.90;;;;;;5039307;28;20024;-48
2021/09/27 07:29:28;;;;;;;24.80;17.55;;;18.30;99.90;;;;;;5028665;28;20534;-48
2021/09/27 07:31:53;;;;;;;28.58;18.90;;;18.40;99.90;;;;;;5046268;28;20276;-48
2021/09/27 07:34:20;;;;;;;27.15;18.58;;;18.50;99.90;;;;;;5047726;28;20033;-50
2021/09/27 07:36:46;;;;;;;27.92;17.65;;;18.60;99.90;;;;;;5031003;28;20033;-50
2021/09/27 07:39:11;;;;;;;23.65;16.13;;;18.60;99.90;;;;;;5027830;28;20534;-47
2021/09/27 07:41:37;;;;;;;26.58;17.42;;;18.70;99.90;;;;;;5031973;28;20021;-47
2021/09/27 07:44:04;;;;;;;29.70;18.35;;;18.70;99.90;;;;;;5033886;28;20017;-48
2021/09/27 07:46:30;;;;;;;25.02;17.63;;;18.70;99.90;;;;;;5040496;28;20487;-47
2021/09/27 07:48:55;;;;;;;22.30;16.00;;;18.80;99.90;;;;;;5037392;28;20030;-49
2021/09/27 07:51:22;;;;;;;22.40;15.70;;;18.80;99.90;;;;;;5035448;28;20040;-47
2021/09/27 07:53:48;;;;;;;22.48;16.00;;;19.00;99.90;;;;;;5045749;28;20072;-47
2021/09/27 07:56:13;;;;;;;19.50;14.05;;;19.10;99.90;;;;;;5040470;28;20032;-48
2021/09/27 07:58:39;;;;;;;23.58;14.52;;;19.20;99.90;;;;;;5036463;28;20048;-50
2021/09/27 08:01:04;;;;;;;19.67;13.52;;;19.20;99.90;;;;;;5054838;28;20022;-48
2021/09/27 08:03:30;;;;;;;20.02;14.18;;;19.30;99.90;;;;;;5040279;28;20017;-46
2021/09/27 08:05:55;;;;;;;17.85;13.32;;;19.40;99.90;;;;;;5041465;28;20028;-49
2021/09/27 08:08:21;;;;;;;20.52;14.75;;;19.40;99.90;;;;;;5039781;28;20033;-49
2021/09/27 08:10:46;;;;;;;19.98;14.13;;;19.50;99.90;;;;;;5038056;28;20398;-47
2021/09/27 08:13:14;;;;;;;17.15;13.55;;;19.50;99.90;;;;;;5043273;28;20032;-47
2021/09/27 08:15:43;;;;;;;14.80;12.13;;;19.40;99.90;;;;;;5042842;28;20083;-46
2021/09/27 08:18:10;;;;;;;13.30;10.30;;;19.60;99.90;;;;;;5038812;28;20426;-47
2021/09/27 08:20:40;;;;;;;14.85;12.32;;;19.80;99.90;;;;;;5043719;28;20036;-46
2021/09/27 08:23:07;;;;;;;19.52;12.52;;;19.90;99.90;;;;;;5040850;28;20502;-45
2021/09/27 08:25:32;;;;;;;18.73;12.95;;;20.00;99.90;;;;;;5038031;28;20495;-45
2021/09/27 08:27:59;;;;;;;14.90;11.10;;;20.10;99.90;;;;;;5035370;28;20040;-46
2021/09/27 08:30:59;;;;;;;16.60;11.68;;;20.10;99.90;;;;;;5061301;28;20017;-47
2021/09/27 08:33:27;;;;;;;21.92;12.02;;;20.30;99.90;;;;;;5026801;28;20037;-47
2021/09/27 08:35:54;;;;;;;16.05;12.32;;;20.50;99.90;;;;;;5040002;28;20124;-50
2021/09/27 08:38:22;;;;;;;15.18;12.65;;;20.70;99.90;;;;;;5033794;28;20026;-48
2021/09/27 08:41:22;;;;;;;13.15;11.13;;;20.80;99.90;;;;;;5033225;28;20033;-47
2021/09/27 08:44:21;;;;;;;18.80;12.93;;;21.20;99.90;;;;;;5039806;28;20057;-47
2021/09/27 08:46:56;;;;;;;22.15;13.60;;;21.00;99.90;;;;;;5038677;28;20037;-49
2021/09/27 08:49:40;;;;;;;16.88;12.68;;;20.80;99.90;;;;;;5037602;28;20108;-48
2021/09/27 08:52:08;;;;;;;15.55;10.93;;;20.80;99.90;;;;;;5038956;28;20498;-48
2021/09/27 08:54:35;;;;;;;16.27;11.55;;;20.80;99.90;;;;;;5039402;28;20376;-48
2021/09/27 08:57:06;;;;;;;14.45;11.90;;;20.80;99.90;;;;;;5036592;28;20111;-51
2021/09/27 08:59:55;;;;;;;18.58;13.18;;;20.80;99.90;;;;;;5039754;28;20036;-47
2021/09/27 09:02:42;;;;;;;20.33;12.77;;;20.80;99.90;;;;;;5041677;28;20086;-50
2021/09/27 09:05:21;;;;;;;17.13;11.65;;;21.30;99.90;;;;;;5045641;28;20021;-47
2021/09/27 09:08:26;;;;;;;14.50;10.32;;;22.80;99.90;;;;;;5039002;28;20032;-51
2021/09/27 09:10:57;;;;;;;11.82;8.02;;;24.70;99.90;;;;;;5038312;28;20037;-45
2021/09/27 09:13:56;;;;;;;9.68;8.30;;;26.60;99.90;;;;;;5038344;28;20036;-49
2021/09/27 09:16:38;;;;;;;13.48;10.13;;;27.60;99.90;;;;;;5048535;28;20389;-46
2021/09/27 09:19:08;;;;;;;12.20;8.88;;;26.80;99.90;;;;;;5038519;28;20017;-46
2021/09/27 09:22:14;;;;;;;10.77;8.80;;;26.20;99.90;;;;;;5037216;28;20372;-46
2021/09/27 09:24:41;;;;;;;11.50;9.98;;;26.00;99.90;;;;;;5030366;28;20037;-48
2021/09/27 09:27:10;;;;;;;20.35;10.50;;;25.60;99.90;;;;;;5037866;28;20383;-46
2021/09/27 09:29:39;;;;;;;13.50;9.27;;;24.90;99.90;;;;;;5042780;28;20738;-45
2021/09/27 09:32:18;;;;;;;13.90;9.60;;;24.60;99.90;;;;;;5043487;28;20084;-45
2021/09/27 09:34:44;;;;;;;12.77;9.68;;;24.70;99.90;;;;;;5055103;28;20025;-47
2021/09/27 09:37:22;;;;;;;12.20;9.85;;;24.40;99.90;;;;;;5044382;28;20035;-45
2021/09/27 09:40:00;;;;;;;12.88;9.60;;;23.80;99.90;;;;;;5048626;28;20044;-47
2021/09/27 09:42:32;;;;;;;10.90;9.57;;;23.70;99.90;;;;;;5057759;28;20028;-49
2021/09/27 09:45:16;;;;;;;14.10;10.80;;;23.50;99.90;;;;;;5030153;28;20479;-47
2021/09/27 09:47:42;;;;;;;11.27;9.63;;;23.80;99.90;;;;;;5046540;28;20048;-47
2021/09/27 09:50:26;;;;;;;10.50;9.35;;;25.00;99.90;;;;;;5050218;28;20122;-48
2021/09/27 09:52:55;;;;;;;12.63;9.05;;;26.20;99.90;;;;;;5055730;28;20025;-48
2021/09/27 09:55:34;;;;;;;10.60;9.57;;;27.10;98.20;;;;;;5040642;28;20110;-49
2021/09/27 09:58:04;;;;;;;10.65;9.35;;;27.00;96.70;;;;;;5038203;28;20357;-50
2021/09/27 10:00:51;;;;;;;9.32;8.35;;;27.30;95.20;;;;;;5038305;28;20359;-50
2021/09/27 10:03:21;;;;;;;10.68;8.73;;;28.40;94.10;;;;;;5043464;28;20348;-48
2021/09/27 10:05:53;;;;;;;;;;;29.30;92.00;;;;;;5045556;28;20040;-49
2021/09/27 10:08:22;;;;;;;9.02;8.13;;;29.60;91.30;;;;;;5046264;28;19909;-48
2021/09/27 10:11:07;;;;;;;10.43;9.27;;;30.60;86.10;;;;;;5045296;28;20025;-48
2021/09/27 10:13:41;;;;;;;11.20;9.05;;;29.50;85.50;;;;;;5047916;28;20048;-49
2021/09/27 10:16:38;;;;;;;10.32;9.30;;;29.10;87.10;;;;;;5045439;28;20025;-47
2021/09/27 10:19:39;;;;;;;9.18;8.18;;;30.40;84.00;;;;;;5059447;28;20028;-48
2021/09/27 10:22:15;;;;;;;11.27;9.88;;;30.20;82.60;;;;;;5065999;28;20366;-48
2021/09/27 10:24:45;;;;;;;10.07;8.23;;;29.60;82.70;;;;;;5045721;28;20032;-47
2021/09/27 10:27:28;;;;;;;9.43;8.35;;;29.80;81.50;;;;;;5030463;28;20106;-48
2021/09/27 10:29:57;;;;;;;13.90;9.85;;;29.10;83.50;;;;;;5030061;28;20049;-47
2021/09/27 10:32:23;;;;;;;11.68;9.75;;;27.20;86.80;;;;;;5040371;28;20032;-46
2021/09/27 10:34:49;;;;;;;14.77;11.45;;;26.00;91.60;;;;;;5047353;28;20056;-47
2021/09/27 10:37:19;;;;;;;17.52;11.27;;;24.80;93.50;;;;;;5046415;28;20453;-47
2021/09/27 10:39:49;;;;;;;14.65;12.85;;;23.70;94.90;;;;;;5060194;28;20539;-47
2021/09/27 10:42:19;;;;;;;;;;;23.00;98.10;;;;;;5063605;28;20021;-47
2021/09/27 10:44:50;;;;;;;21.00;13.68;;;22.90;98.80;;;;;;5028914;28;20398;-49
2021/09/27 10:47:21;;;;;;;15.07;13.07;;;22.60;99.90;;;;;;5045075;28;20601;-47
2021/09/27 10:49:54;;;;;;;14.75;13.13;;;22.70;99.90;;;;;;5048002;28;20044;-47
2021/09/27 10:52:21;;;;;;;16.67;13.80;;;23.10;99.90;;;;;;5049353;28;20094;-47
2021/09/27 10:55:14;;;;;;;17.08;14.27;;;23.10;99.90;;;;;;5047094;28;20048;-50
2021/09/27 10:57:54;;;;;;;15.73;13.65;;;23.30;99.10;;;;;;5029156;28;20021;-48
2021/09/27 11:00:31;;;;;;;;;;;24.60;98.50;;;;;;5030089;28;20073;-48
2021/09/27 11:03:13;;;;;;;13.43;10.88;;;26.20;95.80;;;;;;5050251;28;19987;-48
2021/09/27 11:05:59;;;;;;;10.45;9.35;;;27.90;90.60;;;;;;5051397;28;20049;-50
2021/09/27 11:08:39;;;;;;;10.25;9.20;;;28.90;89.50;;;;;;5029159;28;20467;-48
2021/09/27 11:11:30;;;;;;;9.20;8.35;;;29.50;84.40;;;;;;5041277;28;20056;-49
2021/09/27 11:13:58;;;;;;;11.05;9.80;;;28.70;82.80;;;;;;5037386;28;20124;-50
2021/09/27 11:16:31;;;;;;;11.20;10.00;;;28.00;84.00;;;;;;5040101;28;20048;-48
2021/09/27 11:19:28;;;;;;;10.95;9.20;;;27.50;86.00;;;;;;5038487;28;20076;-47
2021/09/27 11:21:53;;;;;;;11.63;10.43;;;27.80;86.10;;;;;;5038089;28;20037;-49
2021/09/27 11:24:19;;;;;;;11.43;10.23;;;27.40;85.90;;;;;;5042867;28;20064;-48
2021/09/27 11:27:00;;;;;;;10.75;9.45;;;27.20;85.70;;;;;;5048972;28;20108;-49
2021/09/27 11:29:34;;;;;;;10.18;9.10;;;27.70;83.40;;;;;;5043150;28;20021;-49
2021/09/27 11:32:22;;;;;;;11.23;9.63;;;27.40;86.20;;;;;;5041992;28;20033;-47
2021/09/27 11:35:30;;;;;;;10.35;9.02;;;28.10;84.70;;;;;;5046367;28;20383;-50
2021/09/27 11:38:18;;;;;;;10.20;9.20;;;27.60;83.70;;;;;;5040469;28;20036;-50
2021/09/27 11:40:50;;;;;;;14.00;9.80;;;27.70;83.10;;;;;;5036152;28;20057;-50
2021/09/27 11:43:21;;;;;;;11.23;10.02;;;27.20;84.80;;;;;;5039413;28;20021;-49
2021/09/27 11:45:49;;;;;;;9.73;8.82;;;26.80;85.20;;;;;;5041135;28;20017;-50
2021/09/27 11:48:18;;;;;;;8.43;7.28;;;27.40;86.00;;;;;;5047029;28;20016;-48
2021/09/27 11:50:53;;;;;;;11.02;8.25;;;28.00;81.60;;;;;;5043017;28;20108;-48
2021/09/27 11:53:33;;;;;;;9.77;8.77;;;28.00;81.50;;;;;;5048695;28;20032;-50
2021/09/27 11:56:07;;;;;;;10.73;9.63;;;26.90;82.60;;;;;;5044552;28;20535;-49
2021/09/27 11:58:51;;;;;;;10.35;9.25;;;26.40;85.80;;;;;;5038452;28;20022;-47
2021/09/27 12:01:36;;;;;;;10.65;9.55;;;26.20;88.50;;;;;;5047014;28;20074;-48
2021/09/27 12:04:13;;;;;;;11.30;8.93;;;26.00;88.30;;;;;;5052760;28;20472;-50
2021/09/27 12:06:45;;;;;;;9.23;8.30;;;26.00;87.90;;;;;;5041628;28;20029;-48
2021/09/27 12:09:15;;;;;;;10.82;7.80;;;27.10;88.00;;;;;;5047127;28;20068;-48
2021/09/27 12:11:51;;;;;;;8.02;7.22;;;27.20;82.00;;;;;;5052495;28;20024;-47
2021/09/27 12:14:22;;;;;;;11.75;7.90;;;27.00;82.90;;;;;;5037441;28;20122;-50
2021/09/27 12:16:50;;;;;;;12.07;7.68;;;27.20;82.10;;;;;;5049472;28;20033;-49
2021/09/27 12:19:23;;;;;;;8.90;7.45;;;27.70;84.40;;;;;;5051779;28;20122;-46
2021/09/27 12:21:56;;;;;;;8.75;7.70;;;27.20;80.10;;;;;;5041305;28;20033;-47
2021/09/27 12:24:25;;;;;;;8.05;7.25;;;27.20;81.40;;;;;;5033063;28;20648;-49
2021/09/27 12:27:14;;;;;;;10.18;6.95;;;27.10;84.00;;;;;;5048481;28;20025;-48
2021/09/27 12:30:08;;;;;;;11.55;6.93;;;27.40;82.90;;;;;;5050792;28;20091;-48
2021/09/27 12:32:41;;;;;;;8.13;5.95;;;28.00;80.80;;;;;;5054863;28;20020;-49
2021/09/27 12:35:13;;;;;;;7.47;6.53;;;28.30;80.50;;;;;;5054809;28;20450;-50
2021/09/27 12:37:42;;;;;;;7.28;5.68;;;27.50;79.30;;;;;;5063826;28;20111;-48
2021/09/27 12:40:13;;;;;;;6.55;5.95;;;27.40;81.40;;;;;;5071789;28;20104;-48
2021/09/27 12:42:48;;;;;;;6.38;5.63;;;27.60;80.20;;;;;;5053932;28;20037;-50
2021/09/27 12:45:25;;;;;;;8.93;5.90;;;27.90;79.40;;;;;;5038031;28;20032;-48
2021/09/27 12:47:52;;;;;;;6.82;6.13;;;27.30;80.80;;;;;;5049446;28;20154;-48
2021/09/27 12:50:23;;;;;;;6.38;5.30;;;27.20;83.10;;;;;;5051709;28;20110;-48
2021/09/27 12:52:55;;;;;;;7.15;6.13;;;27.30;81.20;;;;;;5051631;28;20087;-47
2021/09/27 12:55:29;;;;;;;9.18;7.03;;;26.90;83.30;;;;;;5039487;28;20033;-48
2021/09/27 12:57:59;;;;;;;10.10;6.25;;;26.50;84.90;;;;;;5050517;28;20021;-47
2021/09/27 13:00:40;;;;;;;7.75;6.05;;;26.10;84.70;;;;;;5051405;28;20025;-48
2021/09/27 13:03:08;;;;;;;11.95;6.15;;;25.40;85.30;;;;;;5051220;28;20114;-48
2021/09/27 13:06:01;;;;;;;8.25;5.78;;;24.90;88.10;;;;;;5055271;28;20025;-47
2021/09/27 13:08:44;;;;;;;8.77;6.10;;;24.50;89.00;;;;;;5048222;28;20044;-50
2021/09/27 13:11:29;;;;;;;6.90;5.63;;;24.20;90.40;;;;;;5050124;28;20048;-47
2021/09/27 13:14:19;;;;;;;6.53;5.45;;;24.20;90.60;;;;;;5048607;28;20087;-49
2021/09/27 13:16:46;;;;;;;6.78;5.78;;;24.40;90.00;;;;;;5048466;28;20039;-48
2021/09/27 13:19:34;;;;;;;6.50;5.32;;;24.80;90.80;;;;;;5037008;28;20036;-47
2021/09/27 13:22:00;;;;;;;8.07;5.43;;;25.30;88.80;;;;;;5029404;28;20025;-47
2021/09/27 13:24:30;;;;;;;6.68;5.15;;;25.80;87.40;;;;;;5031978;28;20032;-51